Antigo, Wisconsin
Current Conditions -  °F | °C
As of 7:35 AM on Saturday 25 Oct 2014 (Local Time) from KAIG Reporting Station
Clear Clear  
Wind Chill: 40°   Ceiling: Unl
Heat Index: 45°   Visibility: 10mi
Dew Point: 40°   Wind: 8mph
Humidity: 84%   Direction: 280°W
Pressure: 29.84"   Gusts: NA
Location:  45.14°N, 89.15°W
Report Text: KAIG 251235Z AUTO 28007KT 10SM CLR 07/05 A2984 RMK AO2 T00710046
Loading
Personal Weather Stations






























Interactive Weather Map
Tropical Storm Tracking
New forecast layout! Learn more

10-Day Weather Forecast

Advertisements
Track Severe Weather on mobile